Time;durP1;ratioP1;P1;durP2;ratioP2;P2;SDS_P1;SDS_P2;PMS_P1;PMS_P2;Temp;Humidity;BMP_temperature;BMP_pressure;BME280_temperature;BME280_humidity;BME280_pressure;Samples;Min_cycle;Max_cycle;Signal;HPM_P1;HPM_P2
2022/08/19 00:00:44;;;;;;;15.58;14.24;;;;;;;24.25;67.09;100135.96;454220;116;922523;-75
2022/08/19 00:01:48;;;;;;;14.56;13.24;;;;;;;24.25;66.94;100141.53;454249;116;922676;-75
2022/08/19 00:02:54;;;;;;;16.31;14.87;;;;;;;24.25;66.91;100137.92;453781;116;922614;-75
2022/08/19 00:03:58;;;;;;;15.51;14.22;;;;;;;24.25;66.87;100140.70;454153;116;922583;-75
2022/08/19 00:05:03;;;;;;;14.95;13.47;;;;;;;24.24;66.83;100142.66;452985;116;922548;-75
2022/08/19 00:06:06;;;;;;;15.21;13.92;;;;;;;24.24;66.83;100137.09;448287;118;922929;-75
2022/08/19 00:07:10;;;;;;;15.41;14.18;;;;;;;24.25;66.85;100146.28;448404;118;930391;-75
2022/08/19 00:08:13;;;;;;;18.62;16.48;;;;;;;24.24;66.93;100152.98;448438;118;922538;-75
2022/08/19 00:09:18;;;;;;;22.22;18.43;;;;;;;24.23;67.03;100154.95;448463;118;923059;-75
2022/08/19 00:10:22;;;;;;;25.92;21.11;;;;;;;24.23;66.97;100163.30;448248;118;922592;-74
2022/08/19 00:11:27;;;;;;;24.95;22.23;;;;;;;24.25;66.92;100154.64;448445;118;923047;-75
2022/08/19 00:12:30;;;;;;;26.53;23.07;;;;;;;24.25;66.83;100163.82;448225;117;922594;-75
2022/08/19 00:13:33;;;;;;;23.04;20.55;;;;;;;24.27;66.80;100169.88;447492;118;922613;-75
2022/08/19 00:14:37;;;;;;;23.78;21.26;;;;;;;24.27;66.80;100169.88;447478;118;923011;-75
2022/08/19 00:15:44;;;;;;;26.62;20.47;;;;;;;24.27;66.60;100171.84;455689;116;922569;-75
2022/08/19 00:16:47;;;;;;;24.19;20.35;;;;;;;24.28;66.53;100177.11;457159;114;922493;-74
2022/08/19 00:17:50;;;;;;;24.05;19.61;;;;;;;24.29;66.66;100164.83;457205;116;922530;-74
2022/08/19 00:18:55;;;;;;;25.09;19.69;;;;;;;24.29;66.66;100164.83;457310;116;930510;-74
2022/08/19 00:19:58;;;;;;;21.29;19.05;;;;;;;24.30;66.42;100177.62;457241;116;923142;-75
2022/08/19 00:21:01;;;;;;;21.28;18.87;;;;;;;24.30;66.15;100174.84;457254;114;922568;-74
2022/08/19 00:22:05;;;;;;;20.92;18.73;;;;;;;24.31;66.10;100179.28;457285;115;922539;-75
2022/08/19 00:23:09;;;;;;;20.85;18.58;;;;;;;24.31;66.08;100170.09;457132;115;930424;-74
2022/08/19 00:24:14;;;;;;;22.14;18.70;;;;;;;24.31;66.09;100176.49;457183;115;930719;-75
2022/08/19 00:25:18;;;;;;;20.20;18.32;;;;;;;24.32;66.06;100180.08;457113;116;930440;-75
2022/08/19 00:26:25;;;;;;;20.81;18.52;;;;;;;24.32;66.07;100180.90;456057;114;922587;-75
2022/08/19 00:27:28;;;;;;;21.89;19.23;;;;;;;24.32;66.08;100171.72;457173;116;922988;-75
2022/08/19 00:28:32;;;;;;;23.13;19.38;;;;;;;24.32;66.03;100183.69;457281;116;930531;-75
2022/08/19 00:29:37;;;;;;;24.11;18.91;;;;;;;24.31;65.94;100170.09;456518;115;922857;-75
2022/08/19 00:30:41;;;;;;;20.76;17.69;;;;;;;24.28;65.95;100165.96;454610;116;922579;-75
2022/08/19 00:31:44;;;;;;;24.41;18.23;;;;;;;24.26;66.05;100173.80;457338;116;922949;-75
2022/08/19 00:32:48;;;;;;;20.69;18.52;;;;;;;24.24;66.00;100167.73;457262;116;922531;-75
2022/08/19 00:33:51;;;;;;;20.19;18.15;;;;;;;24.22;66.09;100171.97;457228;115;930517;-75
2022/08/19 00:34:55;;;;;;;20.56;18.52;;;;;;;24.21;66.29;100171.14;457307;116;930479;-75
2022/08/19 00:35:59;;;;;;;25.17;19.38;;;;;;;24.19;66.34;100167.86;457272;116;923127;-75
2022/08/19 00:37:02;;;;;;;21.12;18.72;;;;;;;24.19;66.25;100165.08;457214;116;922534;-75
2022/08/19 00:38:06;;;;;;;22.20;18.99;;;;;;;24.17;66.31;100156.17;457316;115;924674;-75
2022/08/19 00:39:10;;;;;;;20.34;18.22;;;;;;;24.17;66.31;100160.91;457264;116;923068;-75
2022/08/19 00:40:15;;;;;;;28.00;19.47;;;;;;;24.16;66.33;100162.87;457208;116;922974;-76
2022/08/19 00:41:21;;;;;;;19.66;17.79;;;;;;;24.17;66.34;100161.74;457121;115;930501;-75
2022/08/19 00:42:28;;;;;;;22.04;18.41;;;;;;;24.17;66.41;100167.31;457098;116;922642;-75
2022/08/19 00:43:29;;;;;;;23.97;18.03;;;;;;;24.18;66.39;100166.21;457107;115;922622;-75
2022/08/19 00:44:32;;;;;;;18.67;16.64;;;;;;;24.18;66.35;100169.00;457352;116;922891;-75
2022/08/19 00:45:35;;;;;;;19.36;17.29;;;;;;;24.19;66.38;100165.08;457326;116;922642;-75
2022/08/19 00:46:42;;;;;;;17.92;16.27;;;;;;;24.20;66.31;100169.52;457224;115;922567;-75
2022/08/19 00:47:45;;;;;;;18.38;16.64;;;;;;;24.20;66.35;100163.95;457155;116;922620;-75
2022/08/19 00:48:48;;;;;;;20.21;18.11;;;;;;;24.20;66.27;100158.38;457281;116;922664;-75
2022/08/19 00:49:55;;;;;;;18.04;16.36;;;;;;;24.21;66.30;100168.35;457352;116;922987;-75
2022/08/19 00:50:58;;;;;;;18.73;16.29;;;;;;;24.22;66.29;100163.61;457158;116;922655;-75
2022/08/19 00:52:12;;;;;;;17.81;16.07;;;;;;;24.22;66.27;100167.22;457242;115;922975;-76
2022/08/19 00:53:18;;;;;;;18.21;16.12;;;;;;;24.22;66.18;100164.44;457148;116;923031;-75
2022/08/19 00:54:22;;;;;;;18.13;16.45;;;;;;;24.23;66.26;100166.09;457155;116;923100;-75
2022/08/19 00:55:28;;;;;;;17.32;15.76;;;;;;;24.22;66.21;100164.44;456379;115;922544;-75
2022/08/19 00:56:33;;;;;;;18.04;16.17;;;;;;;24.23;66.20;100171.66;457146;115;922508;-75
2022/08/19 00:57:40;;;;;;;18.19;16.54;;;;;;;24.23;66.30;100174.45;457142;115;922589;-75
2022/08/19 00:58:44;;;;;;;18.74;16.67;;;;;;;24.23;66.29;100171.66;457024;116;930578;-75
2022/08/19 00:59:50;;;;;;;16.66;15.16;;;;;;;24.23;66.27;100166.09;457222;116;923071;-75
2022/08/19 01:00:55;;;;;;;17.53;15.74;;;;;;;24.23;66.26;100171.66;456138;115;922650;-75
2022/08/19 01:01:59;;;;;;;17.41;15.78;;;;;;;24.24;66.28;100175.27;457326;116;922463;-75
2022/08/19 01:03:04;;;;;;;18.22;16.42;;;;;;;24.24;66.29;100167.73;457305;115;922607;-75
2022/08/19 01:04:07;;;;;;;18.87;16.73;;;;;;;24.25;66.32;100169.39;457107;116;922567;-76
2022/08/19 01:05:14;;;;;;;18.93;17.01;;;;;;;24.25;66.29;100166.61;457355;116;922805;-76
2022/08/19 01:06:21;;;;;;;18.29;16.46;;;;;;;24.26;66.25;100170.22;456983;115;922846;-75
2022/08/19 01:07:25;;;;;;;19.69;17.89;;;;;;;24.27;66.19;100166.27;457363;116;923098;-75
2022/08/19 01:08:28;;;;;;;18.32;16.33;;;;;;;24.27;66.17;100163.48;457306;115;922548;-75
2022/08/19 01:09:31;;;;;;;18.24;16.54;;;;;;;24.26;66.16;100165.44;457322;116;922561;-76
2022/08/19 01:10:42;;;;;;;19.34;16.56;;;;;;;24.25;66.13;100160.20;457243;115;922631;-76
2022/08/19 01:11:46;;;;;;;19.12;17.10;;;;;;;24.24;66.12;100166.91;456482;115;922575;-76
2022/08/19 01:12:50;;;;;;;20.05;18.24;;;;;;;24.21;66.12;100168.35;457227;115;922888;-76
2022/08/19 01:13:53;;;;;;;20.69;16.68;;;;;;;24.19;66.08;100169.83;457244;116;923323;-76
2022/08/19 01:14:58;;;;;;;19.31;17.36;;;;;;;24.16;66.09;100165.66;457242;115;922614;-75
2022/08/19 01:16:05;;;;;;;20.74;18.64;;;;;;;24.13;66.19;100166.30;456979;116;922615;-76
2022/08/19 01:17:11;;;;;;;20.41;18.41;;;;;;;24.13;66.29;100171.05;456931;116;930600;-76
2022/08/19 01:18:16;;;;;;;19.84;18.08;;;;;;;24.11;66.39;100165.78;457001;116;923154;-76
2022/08/19 01:19:26;;;;;;;20.17;18.14;;;;;;;24.09;66.43;100162.52;456990;116;922604;-76
2022/08/19 01:20:30;;;;;;;21.80;19.33;;;;;;;24.07;66.51;100173.13;456434;116;923043;-76
2022/08/19 01:21:43;;;;;;;21.59;19.56;;;;;;;24.06;66.65;100165.91;457133;116;922621;-76
2022/08/19 01:22:53;;;;;;;23.68;21.03;;;;;;;24.03;66.65;100164.59;457054;116;922712;-76
2022/08/19 01:23:56;;;;;;;25.07;21.89;;;;;;;24.01;66.80;100168.81;457306;116;922532;-76
2022/08/19 01:25:00;;;;;;;24.24;21.86;;;;;;;23.99;66.80;100159.94;457123;116;922885;-76
2022/08/19 01:26:04;;;;;;;26.01;23.02;;;;;;;23.97;66.84;100156.66;457138;116;922576;-75
2022/08/19 01:27:07;;;;;;;24.39;21.82;;;;;;;23.95;66.86;100164.50;457129;116;922528;-76
2022/08/19 01:28:19;;;;;;;28.08;23.31;;;;;;;23.93;66.91;100162.02;456967;116;922549;-76
2022/08/19 01:29:24;;;;;;;28.04;23.77;;;;;;;23.92;66.96;100171.53;454014;116;923236;-76
2022/08/19 01:30:33;;;;;;;30.98;24.64;;;;;;;23.91;67.01;100169.88;454161;116;923625;-76
2022/08/19 01:31:39;;;;;;;27.41;24.01;;;;;;;23.90;67.06;100165.44;457181;116;923192;-76
2022/08/19 01:32:43;;;;;;;29.39;24.21;;;;;;;23.88;67.12;100167.70;457144;116;922623;-76
2022/08/19 01:33:46;;;;;;;32.26;24.98;;;;;;;23.88;67.19;100161.30;457208;116;922513;-76
2022/08/19 01:34:49;;;;;;;27.99;23.34;;;;;;;23.87;67.18;100157.70;457133;116;922843;-76
2022/08/19 01:36:10;;;;;;;25.31;22.85;;;;;;;23.88;67.18;100164.92;456993;115;930710;-76
2022/08/19 01:37:15;;;;;;;28.34;24.03;;;;;;;23.88;67.13;100162.13;457043;116;922565;-76
2022/08/19 01:38:25;;;;;;;27.76;22.61;;;;;;;23.86;67.12;100163.59;457747;114;922574;-76
2022/08/19 01:39:29;;;;;;;27.73;22.78;;;;;;;23.84;67.25;100161.12;457074;116;922547;-76
2022/08/19 01:40:36;;;;;;;26.92;22.29;;;;;;;23.83;67.27;100158.64;457091;116;923194;-75
2022/08/19 01:41:39;;;;;;;24.23;21.70;;;;;;;23.82;67.07;100157.81;456966;116;922651;-76
2022/08/19 01:42:43;;;;;;;25.98;22.26;;;;;;;23.81;66.99;100156.19;457163;116;923732;-76
2022/08/19 01:43:46;;;;;;;23.99;21.24;;;;;;;23.81;66.92;100158.15;457189;116;923040;-77
2022/08/19 01:44:51;;;;;;;23.96;21.53;;;;;;;23.80;66.89;100157.33;458553;114;923172;-75
2022/08/19 01:45:54;;;;;;;24.59;21.98;;;;;;;23.79;66.79;100154.84;457367;116;922896;-75
2022/08/19 01:46:57;;;;;;;24.80;21.81;;;;;;;23.79;66.80;100154.84;457339;115;923042;-75
2022/08/19 01:48:01;;;;;;;21.24;19.15;;;;;;;23.78;66.85;100151.23;457295;116;923029;-75
2022/08/19 01:49:07;;;;;;;21.68;19.32;;;;;;;23.76;66.96;100150.73;457193;116;922554;-75
2022/08/19 01:50:11;;;;;;;27.73;21.43;;;;;;;23.76;67.00;100149.91;457141;116;923162;-75
2022/08/19 01:51:15;;;;;;;19.92;18.06;;;;;;;23.75;67.07;100149.09;457211;115;922657;-75
2022/08/19 01:52:18;;;;;;;20.84;19.11;;;;;;;23.75;67.20;100142.69;457230;116;923446;-75
2022/08/19 01:53:21;;;;;;;21.19;19.30;;;;;;;23.76;67.32;100149.91;457280;116;922878;-75
2022/08/19 01:54:26;;;;;;;17.73;16.30;;;;;;;23.77;67.40;100145.97;456890;115;922597;-75
2022/08/19 01:55:31;;;;;;;18.57;16.98;;;;;;;23.77;67.43;100144.02;457257;115;922560;-75
2022/08/19 01:56:34;;;;;;;17.93;16.29;;;;;;;23.79;67.42;100143.70;457242;115;922835;-75
2022/08/19 01:57:39;;;;;;;19.62;17.56;;;;;;;23.81;67.38;100147.02;457275;115;930490;-75
2022/08/19 01:58:46;;;;;;;18.98;16.76;;;;;;;23.82;67.45;100148.67;457085;116;923393;-75
2022/08/19 01:59:50;;;;;;;18.80;16.92;;;;;;;23.82;67.46;100146.67;457110;116;922571;-75
2022/08/19 02:01:08;;;;;;;18.34;16.41;;;;;;;23.84;67.47;100154.73;456932;115;922540;31
2022/08/19 02:02:11;;;;;;;19.97;16.59;;;;;;;23.84;67.41;100149.98;451229;116;922568;-75
2022/08/19 02:03:16;;;;;;;17.24;15.73;;;;;;;23.84;67.33;100149.98;451240;117;922584;-75
2022/08/19 02:04:20;;;;;;;18.74;16.62;;;;;;;23.85;67.28;100150.81;451575;117;922606;-75
2022/08/19 02:05:24;;;;;;;16.72;15.25;;;;;;;23.83;67.25;100159.47;447598;117;922603;-75
2022/08/19 02:06:28;;;;;;;18.11;16.42;;;;;;;23.83;67.17;100155.86;443554;119;922884;-75
2022/08/19 02:07:32;;;;;;;17.76;16.33;;;;;;;23.83;67.19;100156.68;443156;119;923123;-75
2022/08/19 02:08:38;;;;;;;16.94;15.31;;;;;;;23.81;67.18;100153.41;443041;119;930573;-75
2022/08/19 02:09:41;;;;;;;17.57;15.91;;;;;;;23.80;67.15;100150.93;443019;119;923105;-75
2022/08/19 02:10:44;;;;;;;16.06;14.76;;;;;;;23.79;67.01;100152.88;443268;119;923267;-75
2022/08/19 02:11:47;;;;;;;16.29;14.80;;;;;;;23.76;66.82;100153.52;443260;117;922917;-75
2022/08/19 02:12:51;;;;;;;17.18;15.18;;;;;;;23.75;66.79;100156.61;443193;119;922828;-75
2022/08/19 02:13:55;;;;;;;15.29;13.91;;;;;;;23.73;66.74;100151.34;442658;119;922633;-75
2022/08/19 02:14:59;;;;;;;16.22;14.99;;;;;;;23.73;66.79;100150.52;440692;120;922543;-75
2022/08/19 02:16:03;;;;;;;16.26;15.00;;;;;;;23.72;66.72;100154.44;431175;121;922930;-75
2022/08/19 02:17:07;;;;;;;15.64;14.22;;;;;;;23.72;66.68;100149.70;431145;123;922828;-75
2022/08/19 02:18:10;;;;;;;18.19;15.87;;;;;;;23.72;66.65;100148.87;431286;123;922627;-75
2022/08/19 02:19:13;;;;;;;16.08;14.74;;;;;;;23.71;66.66;100148.05;431320;123;922726;-76
2022/08/19 02:20:17;;;;;;;15.21;13.99;;;;;;;23.71;66.76;100152.81;431255;123;922845;-75
2022/08/19 02:21:22;;;;;;;15.59;14.39;;;;;;;23.71;66.93;100156.39;431145;123;930306;-75
2022/08/19 02:22:25;;;;;;;15.85;14.61;;;;;;;23.72;66.97;100146.91;431010;123;922645;-75
2022/08/19 02:23:29;;;;;;;16.17;14.87;;;;;;;23.73;66.89;100153.30;429591;123;923445;-75
2022/08/19 02:24:32;;;;;;;16.40;14.98;;;;;;;23.74;67.01;100153.00;429671;123;922586;-75
2022/08/19 02:25:35;;;;;;;17.06;15.39;;;;;;;23.75;67.10;100151.88;429621;123;922642;-75
2022/08/19 02:26:39;;;;;;;15.60;14.29;;;;;;;23.77;67.17;100157.11;429675;121;923097;-75
2022/08/19 02:27:43;;;;;;;15.77;14.46;;;;;;;23.77;67.15;100154.32;429588;123;923113;-75
2022/08/19 02:28:48;;;;;;;15.49;14.22;;;;;;;23.77;67.14;100154.32;429723;123;922970;-75
2022/08/19 02:29:51;;;;;;;15.48;14.14;;;;;;;23.76;67.08;100153.52;438432;117;922805;-76
2022/08/19 02:30:55;;;;;;;15.58;14.31;;;;;;;23.76;67.10;100150.73;446440;117;922689;-74
2022/08/19 02:31:59;;;;;;;15.84;14.36;;;;;;;23.75;67.02;100151.05;440443;120;922561;-76
2022/08/19 02:33:02;;;;;;;14.78;13.36;;;;;;;23.74;66.98;100144.66;440480;120;922859;-74
2022/08/19 02:34:05;;;;;;;14.15;12.96;;;;;;;23.74;67.03;100146.61;443815;118;922832;-73
2022/08/19 02:35:09;;;;;;;14.17;12.99;;;;;;;23.74;67.13;100141.87;447131;117;922602;-74
2022/08/19 02:36:16;;;;;;;14.48;13.21;;;;;;;23.74;67.22;100146.61;446876;118;922557;-74
2022/08/19 02:38:43;;;;;;;14.88;13.66;;;;;;;23.77;67.39;100152.36;446899;118;922948;-74
2022/08/19 02:39:49;;;;;;;14.32;13.24;;;;;;;23.78;67.42;100148.45;445910;118;922616;-74
2022/08/19 02:40:59;;;;;;;13.89;12.60;;;;;;;23.80;67.40;100162.06;447026;117;922481;-75
2022/08/19 02:42:02;;;;;;;13.74;12.53;;;;;;;23.80;67.36;100153.71;441278;118;930318;-75
2022/08/19 02:43:07;;;;;;;13.91;12.71;;;;;;;23.79;67.23;100157.62;440387;120;922566;-75
2022/08/19 02:44:11;;;;;;;13.77;12.48;;;;;;;23.78;67.21;100158.76;440227;120;922702;-75
2022/08/19 02:45:16;;;;;;;11.91;10.98;;;;;;;23.77;67.17;100152.36;437994;120;922719;-75
2022/08/19 02:46:26;;;;;;;12.31;11.32;;;;;;;23.76;67.06;100141.56;440014;118;922685;-75
2022/08/19 02:47:30;;;;;;;12.89;11.67;;;;;;;23.76;66.96;100149.91;440243;120;922982;-75
2022/08/19 02:48:33;;;;;;;12.25;11.14;;;;;;;23.75;66.86;100145.48;440474;120;923197;-75
2022/08/19 02:49:36;;;;;;;11.93;11.00;;;;;;;23.74;66.65;100152.17;440458;120;923099;-75
2022/08/19 02:50:40;;;;;;;12.00;11.04;;;;;;;23.72;66.45;100148.87;440420;120;922478;-75
2022/08/19 02:51:46;;;;;;;12.57;11.43;;;;;;;23.68;66.48;100146.72;437914;120;922586;-75
2022/08/19 02:52:49;;;;;;;13.15;12.12;;;;;;;23.67;66.48;100152.59;440295;120;922862;-75
2022/08/19 02:53:52;;;;;;;12.62;11.51;;;;;;;23.65;66.50;100155.68;440415;120;922604;-75
2022/08/19 02:54:57;;;;;;;12.45;11.49;;;;;;;23.64;66.54;100159.63;440480;120;922663;-75
2022/08/19 02:56:00;;;;;;;13.27;12.17;;;;;;;23.64;66.63;100161.58;440240;118;922858;-75
2022/08/19 02:57:04;;;;;;;12.23;10.62;;;;;;;23.62;66.81;100159.10;440420;120;922977;-75
2022/08/19 02:58:07;;;;;;;12.40;11.36;;;;;;;23.62;66.87;100158.27;440360;120;922568;-75
2022/08/19 02:59:11;;;;;;;12.05;11.18;;;;;;;23.61;66.92;100154.66;440311;120;930371;-75
2022/08/19 03:00:16;;;;;;;12.00;10.88;;;;;;;23.60;66.96;100161.36;440292;120;923143;-75
2022/08/19 03:01:27;;;;;;;12.42;11.36;;;;;;;23.60;67.01;100157.75;440333;118;924744;-75
2022/08/19 03:02:32;;;;;;;12.52;11.49;;;;;;;23.59;66.98;100154.17;443193;119;922918;-75
2022/08/19 03:03:35;;;;;;;12.06;11.05;;;;;;;23.60;67.17;100163.31;443666;119;923046;-74
2022/08/19 03:04:38;;;;;;;12.99;11.70;;;;;;;23.60;67.33;100161.36;443668;119;923269;-75
2022/08/19 03:05:42;;;;;;;12.12;11.11;;;;;;;23.61;67.50;100157.45;443658;119;923132;-75
2022/08/19 03:06:47;;;;;;;11.43;10.51;;;;;;;23.63;67.61;100160.75;443141;119;923149;-74
2022/08/19 03:07:50;;;;;;;10.99;9.96;;;;;;;23.66;67.73;100162.08;443689;119;922703;-75
2022/08/19 03:08:55;;;;;;;11.32;10.49;;;;;;;23.68;67.82;100159.81;443718;119;923001;-75
2022/08/19 03:09:58;;;;;;;11.62;10.71;;;;;;;23.72;67.78;100165.57;443655;119;923286;-75
2022/08/19 03:11:02;;;;;;;11.26;10.46;;;;;;;23.72;67.78;100165.57;443604;119;922797;-75
2022/08/19 03:12:05;;;;;;;12.28;10.86;;;;;;;23.75;67.75;100168.58;443644;119;930559;-75
2022/08/19 03:13:08;;;;;;;10.75;9.83;;;;;;;23.76;67.73;100161.88;443596;119;922533;-75
2022/08/19 03:14:13;;;;;;;11.04;10.21;;;;;;;23.77;67.67;100168.23;443653;119;930102;-75
2022/08/19 03:15:16;;;;;;;10.36;9.59;;;;;;;23.76;67.62;100161.88;440513;119;922627;-74
2022/08/19 03:16:23;;;;;;;10.84;9.52;;;;;;;23.77;67.54;100162.67;435586;121;922908;-75
2022/08/19 03:17:26;;;;;;;10.68;9.81;;;;;;;23.76;67.47;100161.05;435760;121;922983;-74
2022/08/19 03:18:29;;;;;;;11.15;10.18;;;;;;;23.74;67.42;100158.56;435950;121;922598;-75
2022/08/19 03:19:33;;;;;;;10.59;9.78;;;;;;;23.72;67.43;100160.00;435937;121;923106;-75
2022/08/19 03:20:45;;;;;;;11.55;10.61;;;;;;;23.70;67.44;100163.13;435900;121;922600;-74
2022/08/19 03:21:49;;;;;;;12.11;10.99;;;;;;;23.68;67.45;100159.81;435737;121;922611;-74
2022/08/19 03:22:52;;;;;;;13.52;10.99;;;;;;;23.67;67.37;100166.52;435863;121;922882;-74
2022/08/19 03:23:59;;;;;;;10.45;9.64;;;;;;;23.65;67.40;100155.68;434827;121;922552;-75
2022/08/19 03:25:02;;;;;;;11.12;10.15;;;;;;;23.65;67.46;100154.89;434806;121;930632;-75
2022/08/19 03:26:06;;;;;;;12.12;11.06;;;;;;;23.64;67.48;100162.41;435801;121;923166;-74
2022/08/19 03:27:12;;;;;;;11.91;10.94;;;;;;;23.63;67.60;100171.06;435533;121;923161;-75
2022/08/19 03:28:15;;;;;;;12.18;9.84;;;;;;;23.63;67.78;100165.50;435868;121;922732;-74
2022/08/19 03:29:19;;;;;;;11.61;10.28;;;;;;;23.64;67.98;100175.50;435960;121;923324;-74
2022/08/19 03:30:24;;;;;;;10.86;9.90;;;;;;;23.65;68.05;100166.02;448172;117;923240;-75
2022/08/19 03:31:27;;;;;;;11.49;10.64;;;;;;;23.66;68.17;100162.91;443313;117;922659;-75
2022/08/19 03:32:32;;;;;;;11.63;10.74;;;;;;;23.67;68.22;100167.34;442474;119;922554;-75
2022/08/19 03:33:36;;;;;;;11.06;10.14;;;;;;;23.69;68.17;100172.60;443628;119;922820;-74
2022/08/19 03:34:39;;;;;;;11.24;10.21;;;;;;;23.68;68.26;100166.20;443601;119;923140;-74
2022/08/19 03:35:43;;;;;;;11.56;10.53;;;;;;;23.68;68.30;100168.99;443648;119;922937;-75
2022/08/19 03:36:46;;;;;;;11.58;10.64;;;;;;;23.69;68.32;100169.82;443617;117;922532;-75
2022/08/19 03:37:50;;;;;;;12.18;11.01;;;;;;;23.69;68.41;100167.86;443594;119;922533;-75
2022/08/19 03:38:57;;;;;;;12.56;11.32;;;;;;;23.70;68.46;100177.04;443597;119;923198;-74
2022/08/19 03:40:03;;;;;;;12.29;11.22;;;;;;;23.68;68.46;100171.78;443432;119;922566;-75
2022/08/19 03:41:10;;;;;;;11.44;10.36;;;;;;;23.68;68.51;100173.73;443399;119;923358;-74
2022/08/19 03:42:13;;;;;;;11.56;10.41;;;;;;;23.68;68.62;100177.34;443488;119;923206;-75
2022/08/19 03:43:18;;;;;;;11.31;10.44;;;;;;;23.69;68.71;100184.56;440762;119;923171;-75
2022/08/19 03:44:22;;;;;;;11.68;10.63;;;;;;;23.71;68.77;100172.30;443648;119;922563;-75
2022/08/19 03:45:27;;;;;;;11.56;10.67;;;;;;;23.72;68.83;100176.70;443622;119;923520;-75
2022/08/19 03:46:33;;;;;;;11.93;10.86;;;;;;;23.74;68.85;100180.84;443433;117;922727;-75
2022/08/19 03:47:37;;;;;;;11.56;10.51;;;;;;;23.76;68.87;100181.36;443680;119;923371;-75
2022/08/19 03:48:42;;;;;;;11.87;10.73;;;;;;;23.81;68.91;100183.20;443639;119;923102;-75
2022/08/19 03:49:46;;;;;;;11.44;10.54;;;;;;;23.81;68.91;100183.20;443473;119;922666;-75
2022/08/19 03:50:49;;;;;;;12.05;11.18;;;;;;;23.83;68.79;100186.48;443558;119;922558;-75
2022/08/19 03:51:54;;;;;;;12.49;11.58;;;;;;;23.84;68.67;100177.00;443533;117;922576;-75
2022/08/19 03:52:57;;;;;;;12.60;11.52;;;;;;;23.85;68.64;100187.01;443539;119;930363;-75
2022/08/19 03:54:02;;;;;;;11.87;10.86;;;;;;;23.84;68.62;100177.83;443692;119;922551;-75
2022/08/19 03:55:06;;;;;;;12.36;11.18;;;;;;;23.87;68.67;100185.54;443490;119;922809;-75
2022/08/19 03:56:11;;;;;;;13.27;12.18;;;;;;;23.87;68.73;100188.33;443597;117;922733;-75
2022/08/19 03:57:14;;;;;;;13.06;11.95;;;;;;;23.88;68.75;100187.20;443591;119;922667;-74
2022/08/19 03:58:17;;;;;;;12.74;11.67;;;;;;;23.89;68.80;100188.84;443666;119;922553;-75
2022/08/19 03:59:24;;;;;;;12.52;11.36;;;;;;;23.91;68.86;100185.77;443690;119;923034;-75
2022/08/19 04:00:29;;;;;;;13.45;12.16;;;;;;;23.94;68.89;100196.26;443420;119;922607;-75
2022/08/19 04:01:32;;;;;;;12.72;11.71;;;;;;;23.96;68.88;100188.42;443662;117;922602;-75
2022/08/19 04:02:37;;;;;;;14.44;12.16;;;;;;;23.99;68.87;100193.36;443414;119;922696;-75
2022/08/19 04:03:40;;;;;;;13.38;12.33;;;;;;;24.00;68.86;100189.44;443668;119;922547;-75
2022/08/19 04:04:44;;;;;;;14.71;13.48;;;;;;;24.03;68.80;100199.97;443585;117;923081;-75
2022/08/19 04:05:47;;;;;;;15.00;13.71;;;;;;;24.06;68.69;100199.33;443511;119;930337;-75
2022/08/19 04:06:51;;;;;;;14.86;13.62;;;;;;;24.10;68.66;100201.17;443456;119;930344;-75
2022/08/19 04:07:57;;;;;;;14.28;13.13;;;;;;;24.13;68.60;100202.52;443490;119;930413;-75
2022/08/19 04:09:02;;;;;;;14.51;13.38;;;;;;;24.16;68.50;100199.09;443418;119;930324;-75
2022/08/19 04:10:05;;;;;;;13.09;11.98;;;;;;;24.20;68.44;100205.73;443474;119;922664;-75
2022/08/19 04:11:14;;;;;;;14.99;13.66;;;;;;;24.23;68.34;100202.30;443280;119;922691;-75
2022/08/19 04:12:18;;;;;;;14.34;13.22;;;;;;;24.25;68.27;100202.00;443456;119;922666;-74
2022/08/19 04:13:21;;;;;;;14.55;13.17;;;;;;;24.27;68.13;100200.53;443529;119;922543;-75
2022/08/19 04:14:33;;;;;;;17.17;15.41;;;;;;;24.28;68.03;100207.76;443518;119;923034;-75
2022/08/19 04:15:39;;;;;;;15.06;13.75;;;;;;;24.29;67.95;100209.41;443108;119;922662;-74
2022/08/19 04:16:44;;;;;;;15.41;13.97;;;;;;;24.31;67.93;100209.10;443040;117;922902;-75
2022/08/19 04:17:47;;;;;;;15.97;14.43;;;;;;;24.32;67.89;100203.19;443074;119;922916;-75
2022/08/19 04:18:50;;;;;;;14.40;13.22;;;;;;;24.34;67.91;100203.72;443285;119;922596;-74
2022/08/19 04:19:53;;;;;;;12.56;11.69;;;;;;;24.36;67.89;100201.45;443194;119;923083;-75
2022/08/19 04:20:57;;;;;;;14.56;12.77;;;;;;;24.38;67.88;100196.36;443245;119;922539;-75
2022/08/19 04:22:00;;;;;;;12.64;11.58;;;;;;;24.40;67.80;100199.66;443266;119;922802;-75
2022/08/19 04:23:03;;;;;;;11.01;10.20;;;;;;;24.42;67.73;100208.52;443332;119;922734;-74
2022/08/19 04:24:08;;;;;;;11.34;10.39;;;;;;;24.43;67.61;100196.23;443287;119;922990;-75
2022/08/19 04:25:12;;;;;;;11.62;10.63;;;;;;;24.45;67.50;100205.11;443151;119;922585;-74
2022/08/19 04:26:21;;;;;;;10.63;9.91;;;;;;;24.48;67.33;100198.89;443184;119;922627;-75
2022/08/19 04:27:24;;;;;;;10.24;9.44;;;;;;;24.49;67.21;100200.55;442992;119;930653;-75
2022/08/19 04:28:28;;;;;;;10.81;9.96;;;;;;;24.50;67.07;100204.98;443248;119;923211;-74
2022/08/19 04:29:32;;;;;;;9.75;8.92;;;;;;;24.53;66.98;100211.91;444143;117;922851;-75
2022/08/19 04:30:43;;;;;;;12.37;9.55;;;;;;;24.53;66.88;100202.72;450764;117;922719;-74
2022/08/19 04:31:47;;;;;;;10.68;9.83;;;;;;;24.56;66.84;100202.07;443412;117;922886;-75
2022/08/19 04:32:50;;;;;;;10.28;9.59;;;;;;;24.57;66.74;100210.13;443623;119;923041;-74
2022/08/19 04:33:56;;;;;;;10.79;9.85;;;;;;;24.58;66.68;100199.80;443526;117;922673;-75
2022/08/19 04:34:59;;;;;;;10.30;9.57;;;;;;;24.58;66.58;100203.41;443410;119;922589;-74
2022/08/19 04:36:05;;;;;;;10.30;9.51;;;;;;;24.60;66.56;100205.86;443203;117;922484;-74
2022/08/19 04:37:12;;;;;;;10.75;9.89;;;;;;;24.61;66.51;100201.94;443554;119;922789;-75
2022/08/19 04:38:17;;;;;;;10.83;9.73;;;;;;;24.61;66.44;100199.16;443358;119;930504;-74
2022/08/19 04:42:38;;;;;;;10.55;9.79;;;;;;;24.62;66.36;100200.80;432744;122;922646;-75
2022/08/19 04:43:13;;;;;;;10.57;9.76;;;;;;;24.65;66.06;100212.14;429286;123;922561;-75
2022/08/19 04:44:19;;;;;;;11.81;10.95;;;;;;;24.67;65.97;100212.66;429344;123;922624;-75
2022/08/19 04:45:22;;;;;;;12.36;11.26;;;;;;;24.68;65.92;100205.94;429252;123;930219;-75
2022/08/19 04:46:28;;;;;;;11.84;10.84;;;;;;;24.70;65.84;100216.78;429342;123;923834;-74
2022/08/19 04:47:34;;;;;;;12.72;11.75;;;;;;;24.71;65.76;100222.02;428091;123;930361;-74
2022/08/19 04:48:39;;;;;;;13.06;12.00;;;;;;;24.72;65.70;100218.09;427227;123;922598;-75
2022/08/19 04:49:44;;;;;;;12.57;11.68;;;;;;;24.74;65.70;100221.41;428558;123;922910;-75
2022/08/19 04:50:48;;;;;;;13.53;12.53;;;;;;;24.76;65.65;100223.85;429507;123;923145;-75
2022/08/19 04:51:54;;;;;;;13.56;12.42;;;;;;;24.76;65.60;100229.43;429331;121;923314;-75
2022/08/19 04:52:57;;;;;;;14.86;13.67;;;;;;;24.77;65.59;100220.75;429172;123;930387;-75
2022/08/19 04:54:02;;;;;;;14.98;13.66;;;;;;;24.79;65.43;100221.27;429403;123;922855;-75
2022/08/19 04:55:06;;;;;;;15.60;14.28;;;;;;;24.80;65.26;100222.09;429296;123;923089;-75